sensor_id;sensor_type;location;lat;lon;timestamp;P1;durP1;ratioP1;P2;durP2;ratioP2
10090;SDS011;5084;51.386;6.778;2024-02-16T00:00:12;1.80;;;1.60;;
10090;SDS011;5084;51.386;6.778;2024-02-16T00:02:41;3.80;;;1.70;;
10090;SDS011;5084;51.386;6.778;2024-02-16T00:05:08;3.57;;;1.90;;
10090;SDS011;5084;51.386;6.778;2024-02-16T00:07:36;2.77;;;2.03;;
10090;SDS011;5084;51.386;6.778;2024-02-16T00:10:02;1.97;;;1.80;;
10090;SDS011;5084;51.386;6.778;2024-02-16T00:12:32;2.63;;;1.77;;
10090;SDS011;5084;51.386;6.778;2024-02-16T00:14:58;2.63;;;2.00;;
10090;SDS011;5084;51.386;6.778;2024-02-16T00:17:24;2.77;;;2.20;;
10090;SDS011;5084;51.386;6.778;2024-02-16T00:19:56;2.60;;;1.80;;
10090;SDS011;5084;51.386;6.778;2024-02-16T00:22:22;3.57;;;1.80;;
10090;SDS011;5084;51.386;6.778;2024-02-16T00:24:48;2.53;;;1.83;;
10090;SDS011;5084;51.386;6.778;2024-02-16T00:27:15;3.73;;;1.80;;
10090;SDS011;5084;51.386;6.778;2024-02-16T00:29:41;4.93;;;3.50;;
10090;SDS011;5084;51.386;6.778;2024-02-16T00:32:07;3.13;;;2.13;;
10090;SDS011;5084;51.386;6.778;2024-02-16T00:34:34;2.50;;;2.10;;
10090;SDS011;5084;51.386;6.778;2024-02-16T00:37:00;2.90;;;1.60;;
10090;SDS011;5084;51.386;6.778;2024-02-16T00:39:26;3.47;;;2.03;;
10090;SDS011;5084;51.386;6.778;2024-02-16T00:41:52;2.17;;;1.97;;
10090;SDS011;5084;51.386;6.778;2024-02-16T00:44:18;2.43;;;2.23;;
10090;SDS011;5084;51.386;6.778;2024-02-16T00:46:44;2.00;;;1.87;;
10090;SDS011;5084;51.386;6.778;2024-02-16T00:49:10;2.47;;;1.80;;
10090;SDS011;5084;51.386;6.778;2024-02-16T00:51:37;6.23;;;2.23;;
10090;SDS011;5084;51.386;6.778;2024-02-16T00:54:03;4.53;;;2.17;;
10090;SDS011;5084;51.386;6.778;2024-02-16T00:56:30;2.17;;;1.90;;
10090;SDS011;5084;51.386;6.778;2024-02-16T00:58:56;2.87;;;1.50;;
10090;SDS011;5084;51.386;6.778;2024-02-16T01:01:22;2.67;;;1.97;;
10090;SDS011;5084;51.386;6.778;2024-02-16T01:03:49;2.60;;;1.73;;
10090;SDS011;5084;51.386;6.778;2024-02-16T01:06:17;4.27;;;2.03;;
10090;SDS011;5084;51.386;6.778;2024-02-16T01:08:43;4.03;;;2.03;;
10090;SDS011;5084;51.386;6.778;2024-02-16T01:11:09;2.27;;;2.10;;
10090;SDS011;5084;51.386;6.778;2024-02-16T01:13:35;3.60;;;1.80;;
10090;SDS011;5084;51.386;6.778;2024-02-16T01:16:02;2.77;;;1.90;;
10090;SDS011;5084;51.386;6.778;2024-02-16T01:18:28;2.17;;;1.97;;
10090;SDS011;5084;51.386;6.778;2024-02-16T01:20:55;2.70;;;2.33;;
10090;SDS011;5084;51.386;6.778;2024-02-16T01:23:21;2.07;;;1.87;;
10090;SDS011;5084;51.386;6.778;2024-02-16T01:25:47;2.80;;;1.90;;
10090;SDS011;5084;51.386;6.778;2024-02-16T01:28:13;2.07;;;1.93;;
10090;SDS011;5084;51.386;6.778;2024-02-16T01:30:40;2.17;;;1.77;;
10090;SDS011;5084;51.386;6.778;2024-02-16T01:33:06;3.33;;;2.20;;
10090;SDS011;5084;51.386;6.778;2024-02-16T01:35:33;3.10;;;1.70;;
10090;SDS011;5084;51.386;6.778;2024-02-16T01:37:59;3.13;;;2.00;;
10090;SDS011;5084;51.386;6.778;2024-02-16T01:40:26;4.50;;;1.83;;
10090;SDS011;5084;51.386;6.778;2024-02-16T01:42:52;5.10;;;1.80;;
10090;SDS011;5084;51.386;6.778;2024-02-16T01:45:18;2.03;;;1.60;;
10090;SDS011;5084;51.386;6.778;2024-02-16T01:47:45;2.83;;;2.50;;
10090;SDS011;5084;51.386;6.778;2024-02-16T01:50:12;3.07;;;1.80;;
10090;SDS011;5084;51.386;6.778;2024-02-16T01:52:38;2.63;;;2.07;;
10090;SDS011;5084;51.386;6.778;2024-02-16T01:55:04;2.30;;;1.60;;
10090;SDS011;5084;51.386;6.778;2024-02-16T01:57:35;3.13;;;1.87;;
10090;SDS011;5084;51.386;6.778;2024-02-16T02:00:01;2.97;;;1.80;;
10090;SDS011;5084;51.386;6.778;2024-02-16T02:02:28;1.97;;;1.80;;
10090;SDS011;5084;51.386;6.778;2024-02-16T02:04:54;3.37;;;2.00;;
10090;SDS011;5084;51.386;6.778;2024-02-16T02:07:24;4.30;;;2.20;;
10090;SDS011;5084;51.386;6.778;2024-02-16T02:09:51;4.73;;;2.17;;
10090;SDS011;5084;51.386;6.778;2024-02-16T02:12:17;2.37;;;1.60;;
10090;SDS011;5084;51.386;6.778;2024-02-16T02:14:43;1.83;;;1.70;;
10090;SDS011;5084;51.386;6.778;2024-02-16T02:17:09;4.10;;;1.93;;
10090;SDS011;5084;51.386;6.778;2024-02-16T02:19:35;4.07;;;2.17;;
10090;SDS011;5084;51.386;6.778;2024-02-16T02:22:01;6.43;;;1.97;;
10090;SDS011;5084;51.386;6.778;2024-02-16T02:24:27;2.53;;;1.80;;
10090;SDS011;5084;51.386;6.778;2024-02-16T02:26:53;2.93;;;2.00;;
10090;SDS011;5084;51.386;6.778;2024-02-16T02:29:20;2.77;;;1.90;;
10090;SDS011;5084;51.386;6.778;2024-02-16T02:31:46;2.13;;;1.93;;
10090;SDS011;5084;51.386;6.778;2024-02-16T02:34:12;2.27;;;2.00;;
10090;SDS011;5084;51.386;6.778;2024-02-16T02:36:39;2.47;;;2.07;;
10090;SDS011;5084;51.386;6.778;2024-02-16T02:39:05;1.90;;;1.67;;
10090;SDS011;5084;51.386;6.778;2024-02-16T02:41:31;2.03;;;1.80;;
10090;SDS011;5084;51.386;6.778;2024-02-16T02:43:57;3.27;;;2.30;;
10090;SDS011;5084;51.386;6.778;2024-02-16T02:46:23;1.80;;;1.70;;
10090;SDS011;5084;51.386;6.778;2024-02-16T02:48:49;2.80;;;2.10;;
10090;SDS011;5084;51.386;6.778;2024-02-16T02:51:16;3.37;;;1.90;;
10090;SDS011;5084;51.386;6.778;2024-02-16T02:53:42;3.60;;;2.00;;
10090;SDS011;5084;51.386;6.778;2024-02-16T02:56:08;1.77;;;1.60;;
10090;SDS011;5084;51.386;6.778;2024-02-16T02:58:34;3.47;;;2.17;;
10090;SDS011;5084;51.386;6.778;2024-02-16T03:01:01;6.37;;;2.73;;
10090;SDS011;5084;51.386;6.778;2024-02-16T03:03:27;2.20;;;1.57;;
10090;SDS011;5084;51.386;6.778;2024-02-16T03:05:54;4.63;;;1.90;;
10090;SDS011;5084;51.386;6.778;2024-02-16T03:08:20;4.53;;;2.07;;
10090;SDS011;5084;51.386;6.778;2024-02-16T03:10:46;2.53;;;2.33;;
10090;SDS011;5084;51.386;6.778;2024-02-16T03:13:12;3.43;;;1.90;;
10090;SDS011;5084;51.386;6.778;2024-02-16T03:15:39;3.40;;;2.33;;
10090;SDS011;5084;51.386;6.778;2024-02-16T03:18:05;3.17;;;2.00;;
10090;SDS011;5084;51.386;6.778;2024-02-16T03:20:33;2.80;;;2.00;;
10090;SDS011;5084;51.386;6.778;2024-02-16T03:23:00;3.77;;;2.03;;
10090;SDS011;5084;51.386;6.778;2024-02-16T03:25:26;4.40;;;1.87;;
10090;SDS011;5084;51.386;6.778;2024-02-16T03:27:52;3.10;;;1.90;;
10090;SDS011;5084;51.386;6.778;2024-02-16T03:30:18;2.43;;;2.17;;
10090;SDS011;5084;51.386;6.778;2024-02-16T03:32:48;2.00;;;1.83;;
10090;SDS011;5084;51.386;6.778;2024-02-16T03:35:15;3.67;;;2.20;;
10090;SDS011;5084;51.386;6.778;2024-02-16T03:37:41;2.33;;;1.90;;
10090;SDS011;5084;51.386;6.778;2024-02-16T03:40:07;4.50;;;1.90;;
10090;SDS011;5084;51.386;6.778;2024-02-16T03:42:37;3.10;;;2.23;;
10090;SDS011;5084;51.386;6.778;2024-02-16T03:45:04;2.17;;;1.97;;
10090;SDS011;5084;51.386;6.778;2024-02-16T03:47:31;1.67;;;1.57;;
10090;SDS011;5084;51.386;6.778;2024-02-16T03:49:57;3.70;;;1.93;;
10090;SDS011;5084;51.386;6.778;2024-02-16T03:52:23;3.03;;;1.90;;
10090;SDS011;5084;51.386;6.778;2024-02-16T03:54:49;3.97;;;1.87;;
10090;SDS011;5084;51.386;6.778;2024-02-16T03:57:16;3.53;;;2.30;;
10090;SDS011;5084;51.386;6.778;2024-02-16T03:59:42;2.47;;;2.00;;
10090;SDS011;5084;51.386;6.778;2024-02-16T04:02:09;2.57;;;2.00;;
10090;SDS011;5084;51.386;6.778;2024-02-16T04:04:35;2.30;;;2.10;;
10090;SDS011;5084;51.386;6.778;2024-02-16T04:07:01;2.97;;;2.13;;
10090;SDS011;5084;51.386;6.778;2024-02-16T04:09:27;2.07;;;1.83;;
10090;SDS011;5084;51.386;6.778;2024-02-16T04:11:53;3.03;;;1.90;;
10090;SDS011;5084;51.386;6.778;2024-02-16T04:14:19;2.67;;;2.00;;
10090;SDS011;5084;51.386;6.778;2024-02-16T04:16:45;3.53;;;3.23;;
10090;SDS011;5084;51.386;6.778;2024-02-16T04:19:11;2.83;;;2.20;;
10090;SDS011;5084;51.386;6.778;2024-02-16T04:21:37;3.40;;;1.97;;
10090;SDS011;5084;51.386;6.778;2024-02-16T04:24:03;4.07;;;2.00;;
10090;SDS011;5084;51.386;6.778;2024-02-16T04:26:29;3.43;;;2.33;;
10090;SDS011;5084;51.386;6.778;2024-02-16T04:28:56;3.93;;;2.30;;
10090;SDS011;5084;51.386;6.778;2024-02-16T04:31:22;4.00;;;2.00;;
10090;SDS011;5084;51.386;6.778;2024-02-16T04:33:47;4.77;;;2.10;;
10090;SDS011;5084;51.386;6.778;2024-02-16T04:36:14;3.17;;;2.20;;
10090;SDS011;5084;51.386;6.778;2024-02-16T04:38:40;1.73;;;1.63;;
10090;SDS011;5084;51.386;6.778;2024-02-16T04:41:06;3.63;;;2.17;;
10090;SDS011;5084;51.386;6.778;2024-02-16T04:43:33;3.03;;;2.07;;
10090;SDS011;5084;51.386;6.778;2024-02-16T04:45:59;2.33;;;2.03;;
10090;SDS011;5084;51.386;6.778;2024-02-16T04:48:25;7.40;;;2.40;;
10090;SDS011;5084;51.386;6.778;2024-02-16T04:50:51;2.20;;;2.00;;
10090;SDS011;5084;51.386;6.778;2024-02-16T04:53:17;3.40;;;2.10;;
10090;SDS011;5084;51.386;6.778;2024-02-16T04:55:43;4.13;;;1.97;;
10090;SDS011;5084;51.386;6.778;2024-02-16T04:58:09;2.87;;;2.30;;
10090;SDS011;5084;51.386;6.778;2024-02-16T05:00:38;2.90;;;2.47;;
10090;SDS011;5084;51.386;6.778;2024-02-16T05:03:04;2.37;;;2.17;;
10090;SDS011;5084;51.386;6.778;2024-02-16T05:05:31;3.23;;;2.00;;
10090;SDS011;5084;51.386;6.778;2024-02-16T05:08:00;2.97;;;2.10;;
10090;SDS011;5084;51.386;6.778;2024-02-16T05:10:26;2.90;;;1.73;;
10090;SDS011;5084;51.386;6.778;2024-02-16T05:12:53;2.13;;;1.93;;
10090;SDS011;5084;51.386;6.778;2024-02-16T05:15:19;2.47;;;1.90;;
10090;SDS011;5084;51.386;6.778;2024-02-16T05:17:46;4.27;;;1.90;;
10090;SDS011;5084;51.386;6.778;2024-02-16T05:20:16;2.03;;;1.83;;
10090;SDS011;5084;51.386;6.778;2024-02-16T05:22:44;3.10;;;2.23;;
10090;SDS011;5084;51.386;6.778;2024-02-16T05:25:14;2.47;;;2.27;;
10090;SDS011;5084;51.386;6.778;2024-02-16T05:27:40;2.83;;;2.00;;
10090;SDS011;5084;51.386;6.778;2024-02-16T05:30:09;3.03;;;2.47;;
10090;SDS011;5084;51.386;6.778;2024-02-16T05:32:36;3.87;;;2.00;;
10090;SDS011;5084;51.386;6.778;2024-02-16T05:35:03;3.63;;;2.40;;
10090;SDS011;5084;51.386;6.778;2024-02-16T05:37:42;3.33;;;2.57;;
10090;SDS011;5084;51.386;6.778;2024-02-16T05:40:09;6.80;;;2.53;;
10090;SDS011;5084;51.386;6.778;2024-02-16T05:42:53;4.37;;;2.03;;
10090;SDS011;5084;51.386;6.778;2024-02-16T05:45:23;3.00;;;1.90;;
10090;SDS011;5084;51.386;6.778;2024-02-16T05:47:49;2.90;;;2.17;;
10090;SDS011;5084;51.386;6.778;2024-02-16T05:50:16;3.00;;;2.30;;
10090;SDS011;5084;51.386;6.778;2024-02-16T05:52:43;3.20;;;2.17;;
10090;SDS011;5084;51.386;6.778;2024-02-16T05:55:09;4.33;;;2.37;;
10090;SDS011;5084;51.386;6.778;2024-02-16T05:57:36;2.33;;;1.97;;
10090;SDS011;5084;51.386;6.778;2024-02-16T06:00:05;2.73;;;2.20;;
10090;SDS011;5084;51.386;6.778;2024-02-16T06:02:32;3.47;;;2.07;;
10090;SDS011;5084;51.386;6.778;2024-02-16T06:04:58;3.57;;;2.17;;
10090;SDS011;5084;51.386;6.778;2024-02-16T06:07:24;5.67;;;2.17;;
10090;SDS011;5084;51.386;6.778;2024-02-16T06:09:51;3.37;;;2.43;;
10090;SDS011;5084;51.386;6.778;2024-02-16T06:12:19;5.07;;;2.40;;
10090;SDS011;5084;51.386;6.778;2024-02-16T06:14:45;3.43;;;2.23;;
10090;SDS011;5084;51.386;6.778;2024-02-16T06:17:13;3.27;;;2.10;;
10090;SDS011;5084;51.386;6.778;2024-02-16T06:19:39;4.47;;;2.20;;
10090;SDS011;5084;51.386;6.778;2024-02-16T06:22:05;3.77;;;2.47;;
10090;SDS011;5084;51.386;6.778;2024-02-16T06:24:33;3.80;;;2.20;;
10090;SDS011;5084;51.386;6.778;2024-02-16T06:26:59;2.47;;;2.03;;
10090;SDS011;5084;51.386;6.778;2024-02-16T06:29:25;4.43;;;2.47;;
10090;SDS011;5084;51.386;6.778;2024-02-16T06:31:51;4.80;;;2.97;;
10090;SDS011;5084;51.386;6.778;2024-02-16T06:34:17;3.33;;;2.20;;
10090;SDS011;5084;51.386;6.778;2024-02-16T06:36:44;2.77;;;2.40;;
10090;SDS011;5084;51.386;6.778;2024-02-16T06:39:10;3.97;;;2.33;;
10090;SDS011;5084;51.386;6.778;2024-02-16T06:41:41;2.90;;;2.37;;
10090;SDS011;5084;51.386;6.778;2024-02-16T06:44:09;3.60;;;2.67;;
10090;SDS011;5084;51.386;6.778;2024-02-16T06:46:35;4.50;;;2.20;;
10090;SDS011;5084;51.386;6.778;2024-02-16T06:49:01;2.67;;;2.47;;
10090;SDS011;5084;51.386;6.778;2024-02-16T06:51:27;2.00;;;1.90;;
10090;SDS011;5084;51.386;6.778;2024-02-16T06:53:54;4.60;;;2.40;;
10090;SDS011;5084;51.386;6.778;2024-02-16T06:56:20;4.37;;;2.60;;
10090;SDS011;5084;51.386;6.778;2024-02-16T06:58:46;2.37;;;1.90;;
10090;SDS011;5084;51.386;6.778;2024-02-16T07:01:13;2.80;;;2.20;;
10090;SDS011;5084;51.386;6.778;2024-02-16T07:03:39;2.57;;;2.10;;
10090;SDS011;5084;51.386;6.778;2024-02-16T07:06:05;4.87;;;2.40;;
10090;SDS011;5084;51.386;6.778;2024-02-16T07:08:35;3.43;;;2.20;;
10090;SDS011;5084;51.386;6.778;2024-02-16T07:11:01;3.63;;;2.23;;
10090;SDS011;5084;51.386;6.778;2024-02-16T07:13:28;2.63;;;2.27;;
10090;SDS011;5084;51.386;6.778;2024-02-16T07:15:54;3.97;;;2.23;;
10090;SDS011;5084;51.386;6.778;2024-02-16T07:18:20;2.93;;;2.07;;
10090;SDS011;5084;51.386;6.778;2024-02-16T07:20:46;3.37;;;2.30;;
10090;SDS011;5084;51.386;6.778;2024-02-16T07:23:12;3.60;;;2.33;;
10090;SDS011;5084;51.386;6.778;2024-02-16T07:25:40;4.73;;;2.43;;
10090;SDS011;5084;51.386;6.778;2024-02-16T07:28:06;3.97;;;2.10;;
10090;SDS011;5084;51.386;6.778;2024-02-16T07:30:33;2.97;;;2.67;;
10090;SDS011;5084;51.386;6.778;2024-02-16T07:32:59;2.40;;;2.20;;
10090;SDS011;5084;51.386;6.778;2024-02-16T07:35:25;2.30;;;2.10;;
10090;SDS011;5084;51.386;6.778;2024-02-16T07:37:51;3.07;;;2.10;;
10090;SDS011;5084;51.386;6.778;2024-02-16T07:40:19;4.03;;;2.30;;
10090;SDS011;5084;51.386;6.778;2024-02-16T07:42:45;3.37;;;2.23;;
10090;SDS011;5084;51.386;6.778;2024-02-16T07:45:11;3.63;;;2.50;;
10090;SDS011;5084;51.386;6.778;2024-02-16T07:47:38;2.50;;;2.30;;
10090;SDS011;5084;51.386;6.778;2024-02-16T07:50:06;3.50;;;2.03;;
10090;SDS011;5084;51.386;6.778;2024-02-16T07:52:32;3.93;;;2.60;;
10090;SDS011;5084;51.386;6.778;2024-02-16T07:54:58;5.97;;;2.70;;
10090;SDS011;5084;51.386;6.778;2024-02-16T07:57:24;2.50;;;2.20;;
10090;SDS011;5084;51.386;6.778;2024-02-16T07:59:50;4.60;;;2.50;;
10090;SDS011;5084;51.386;6.778;2024-02-16T08:02:16;4.17;;;2.53;;
10090;SDS011;5084;51.386;6.778;2024-02-16T08:04:43;4.23;;;2.53;;
10090;SDS011;5084;51.386;6.778;2024-02-16T08:07:12;2.97;;;2.67;;
10090;SDS011;5084;51.386;6.778;2024-02-16T08:09:38;2.73;;;2.40;;
10090;SDS011;5084;51.386;6.778;2024-02-16T08:12:04;5.13;;;2.90;;
10090;SDS011;5084;51.386;6.778;2024-02-16T08:14:35;3.40;;;2.00;;
10090;SDS011;5084;51.386;6.778;2024-02-16T08:17:01;3.50;;;2.07;;
10090;SDS011;5084;51.386;6.778;2024-02-16T08:19:31;6.30;;;2.63;;
10090;SDS011;5084;51.386;6.778;2024-02-16T08:21:58;6.87;;;3.07;;
10090;SDS011;5084;51.386;6.778;2024-02-16T08:24:25;4.63;;;2.40;;
10090;SDS011;5084;51.386;6.778;2024-02-16T08:26:51;3.67;;;2.53;;
10090;SDS011;5084;51.386;6.778;2024-02-16T08:29:17;4.03;;;2.43;;
10090;SDS011;5084;51.386;6.778;2024-02-16T08:31:45;4.10;;;2.63;;
10090;SDS011;5084;51.386;6.778;2024-02-16T08:34:11;4.33;;;2.70;;
10090;SDS011;5084;51.386;6.778;2024-02-16T08:36:37;3.30;;;2.50;;
10090;SDS011;5084;51.386;6.778;2024-02-16T08:39:05;3.57;;;3.03;;
10090;SDS011;5084;51.386;6.778;2024-02-16T08:41:31;2.40;;;2.07;;
10090;SDS011;5084;51.386;6.778;2024-02-16T08:43:57;4.50;;;2.77;;
10090;SDS011;5084;51.386;6.778;2024-02-16T08:46:23;4.23;;;2.80;;
10090;SDS011;5084;51.386;6.778;2024-02-16T08:48:49;2.60;;;2.40;;
10090;SDS011;5084;51.386;6.778;2024-02-16T08:51:15;3.60;;;2.60;;
10090;SDS011;5084;51.386;6.778;2024-02-16T08:53:42;3.33;;;2.40;;
10090;SDS011;5084;51.386;6.778;2024-02-16T08:56:11;4.73;;;2.60;;
10090;SDS011;5084;51.386;6.778;2024-02-16T08:58:37;4.40;;;2.60;;
10090;SDS011;5084;51.386;6.778;2024-02-16T09:01:04;3.47;;;2.60;;
10090;SDS011;5084;51.386;6.778;2024-02-16T09:03:30;3.03;;;2.30;;
10090;SDS011;5084;51.386;6.778;2024-02-16T09:06:03;5.17;;;2.43;;
10090;SDS011;5084;51.386;6.778;2024-02-16T09:08:29;6.17;;;2.83;;
10090;SDS011;5084;51.386;6.778;2024-02-16T09:11:00;2.60;;;2.13;;
10090;SDS011;5084;51.386;6.778;2024-02-16T09:13:30;4.27;;;2.50;;
10090;SDS011;5084;51.386;6.778;2024-02-16T09:15:56;5.03;;;2.60;;
10090;SDS011;5084;51.386;6.778;2024-02-16T09:18:22;7.03;;;3.37;;
10090;SDS011;5084;51.386;6.778;2024-02-16T09:20:48;3.93;;;2.87;;
10090;SDS011;5084;51.386;6.778;2024-02-16T09:23:14;3.10;;;2.40;;
10090;SDS011;5084;51.386;6.778;2024-02-16T09:25:40;4.07;;;2.50;;
10090;SDS011;5084;51.386;6.778;2024-02-16T09:28:06;6.23;;;3.10;;
10090;SDS011;5084;51.386;6.778;2024-02-16T09:30:32;4.07;;;2.90;;
10090;SDS011;5084;51.386;6.778;2024-02-16T09:32:58;4.67;;;3.00;;
10090;SDS011;5084;51.386;6.778;2024-02-16T09:35:24;5.23;;;3.47;;
10090;SDS011;5084;51.386;6.778;2024-02-16T09:37:50;7.03;;;3.17;;
10090;SDS011;5084;51.386;6.778;2024-02-16T09:40:16;4.77;;;2.77;;
10090;SDS011;5084;51.386;6.778;2024-02-16T09:42:47;3.93;;;2.60;;
10090;SDS011;5084;51.386;6.778;2024-02-16T09:45:14;5.77;;;3.63;;
10090;SDS011;5084;51.386;6.778;2024-02-16T09:47:45;3.53;;;2.80;;
10090;SDS011;5084;51.386;6.778;2024-02-16T09:50:14;3.47;;;2.77;;
10090;SDS011;5084;51.386;6.778;2024-02-16T09:52:40;6.57;;;2.80;;
10090;SDS011;5084;51.386;6.778;2024-02-16T09:55:12;3.60;;;3.00;;
10090;SDS011;5084;51.386;6.778;2024-02-16T09:57:38;5.57;;;3.03;;
10090;SDS011;5084;51.386;6.778;2024-02-16T10:00:04;4.10;;;2.90;;
10090;SDS011;5084;51.386;6.778;2024-02-16T10:05:15;4.97;;;2.93;;
10090;SDS011;5084;51.386;6.778;2024-02-16T10:07:42;3.63;;;2.77;;
10090;SDS011;5084;51.386;6.778;2024-02-16T10:10:27;3.83;;;2.87;;
10090;SDS011;5084;51.386;6.778;2024-02-16T10:13:01;5.07;;;2.50;;
10090;SDS011;5084;51.386;6.778;2024-02-16T10:15:29;5.00;;;3.47;;
10090;SDS011;5084;51.386;6.778;2024-02-16T10:18:04;3.57;;;2.40;;
10090;SDS011;5084;51.386;6.778;2024-02-16T10:20:34;6.30;;;2.87;;
10090;SDS011;5084;51.386;6.778;2024-02-16T10:23:07;5.43;;;3.33;;
10090;SDS011;5084;51.386;6.778;2024-02-16T10:25:35;3.37;;;2.70;;
10090;SDS011;5084;51.386;6.778;2024-02-16T10:28:03;6.07;;;3.07;;
10090;SDS011;5084;51.386;6.778;2024-02-16T10:30:30;4.83;;;3.00;;
10090;SDS011;5084;51.386;6.778;2024-02-16T10:32:59;3.30;;;2.90;;
10090;SDS011;5084;51.386;6.778;2024-02-16T10:35:27;4.43;;;3.03;;
10090;SDS011;5084;51.386;6.778;2024-02-16T10:37:54;3.70;;;2.77;;
10090;SDS011;5084;51.386;6.778;2024-02-16T10:40:22;4.20;;;2.97;;
10090;SDS011;5084;51.386;6.778;2024-02-16T10:42:51;4.60;;;3.17;;
10090;SDS011;5084;51.386;6.778;2024-02-16T10:45:17;4.80;;;2.70;;
10090;SDS011;5084;51.386;6.778;2024-02-16T10:47:44;5.57;;;2.90;;
10090;SDS011;5084;51.386;6.778;2024-02-16T10:50:10;6.27;;;3.00;;
10090;SDS011;5084;51.386;6.778;2024-02-16T10:52:38;6.70;;;3.30;;
10090;SDS011;5084;51.386;6.778;2024-02-16T10:55:05;5.30;;;2.60;;
10090;SDS011;5084;51.386;6.778;2024-02-16T10:57:31;6.03;;;3.07;;
10090;SDS011;5084;51.386;6.778;2024-02-16T10:59:58;3.77;;;2.40;;
10090;SDS011;5084;51.386;6.778;2024-02-16T11:02:24;3.47;;;2.70;;
10090;SDS011;5084;51.386;6.778;2024-02-16T11:04:52;4.67;;;2.90;;
10090;SDS011;5084;51.386;6.778;2024-02-16T11:07:18;6.03;;;3.53;;
10090;SDS011;5084;51.386;6.778;2024-02-16T11:09:46;5.33;;;3.03;;
10090;SDS011;5084;51.386;6.778;2024-02-16T11:12:14;6.43;;;3.60;;
10090;SDS011;5084;51.386;6.778;2024-02-16T11:14:41;3.90;;;2.90;;
10090;SDS011;5084;51.386;6.778;2024-02-16T11:17:11;5.70;;;2.67;;
10090;SDS011;5084;51.386;6.778;2024-02-16T11:19:39;5.40;;;2.77;;
10090;SDS011;5084;51.386;6.778;2024-02-16T11:22:06;4.43;;;3.13;;
10090;SDS011;5084;51.386;6.778;2024-02-16T11:24:34;8.00;;;4.00;;
10090;SDS011;5084;51.386;6.778;2024-02-16T11:27:03;4.00;;;2.67;;
10090;SDS011;5084;51.386;6.778;2024-02-16T11:29:33;5.27;;;3.40;;
10090;SDS011;5084;51.386;6.778;2024-02-16T11:32:00;5.73;;;3.23;;
10090;SDS011;5084;51.386;6.778;2024-02-16T11:34:27;6.73;;;2.83;;
10090;SDS011;5084;51.386;6.778;2024-02-16T11:36:57;4.53;;;2.70;;
10090;SDS011;5084;51.386;6.778;2024-02-16T11:39:24;4.03;;;3.20;;
10090;SDS011;5084;51.386;6.778;2024-02-16T11:42:00;5.40;;;2.97;;
10090;SDS011;5084;51.386;6.778;2024-02-16T11:44:32;5.33;;;2.70;;
10090;SDS011;5084;51.386;6.778;2024-02-16T11:46:59;5.70;;;3.23;;
10090;SDS011;5084;51.386;6.778;2024-02-16T11:49:26;5.30;;;2.93;;
10090;SDS011;5084;51.386;6.778;2024-02-16T11:51:52;5.17;;;3.10;;
10090;SDS011;5084;51.386;6.778;2024-02-16T11:54:18;5.53;;;2.87;;
10090;SDS011;5084;51.386;6.778;2024-02-16T11:56:47;4.63;;;3.20;;
10090;SDS011;5084;51.386;6.778;2024-02-16T11:59:17;9.00;;;3.60;;
10090;SDS011;5084;51.386;6.778;2024-02-16T12:01:56;4.20;;;3.47;;
10090;SDS011;5084;51.386;6.778;2024-02-16T12:04:23;9.80;;;3.83;;
10090;SDS011;5084;51.386;6.778;2024-02-16T12:06:59;4.73;;;3.10;;
10090;SDS011;5084;51.386;6.778;2024-02-16T12:09:26;5.43;;;3.10;;
10090;SDS011;5084;51.386;6.778;2024-02-16T12:11:52;6.43;;;3.60;;
10090;SDS011;5084;51.386;6.778;2024-02-16T12:14:21;4.67;;;3.63;;
10090;SDS011;5084;51.386;6.778;2024-02-16T12:16:48;7.23;;;3.70;;
10090;SDS011;5084;51.386;6.778;2024-02-16T12:19:14;5.90;;;4.07;;
10090;SDS011;5084;51.386;6.778;2024-02-16T12:21:40;5.70;;;3.40;;
10090;SDS011;5084;51.386;6.778;2024-02-16T12:24:07;7.97;;;4.00;;
10090;SDS011;5084;51.386;6.778;2024-02-16T12:26:33;8.93;;;4.07;;
10090;SDS011;5084;51.386;6.778;2024-02-16T12:28:59;9.13;;;4.13;;
10090;SDS011;5084;51.386;6.778;2024-02-16T12:31:25;4.90;;;3.70;;
10090;SDS011;5084;51.386;6.778;2024-02-16T12:33:51;9.10;;;4.13;;
10090;SDS011;5084;51.386;6.778;2024-02-16T12:36:17;9.50;;;4.13;;
10090;SDS011;5084;51.386;6.778;2024-02-16T12:38:43;12.20;;;4.40;;
10090;SDS011;5084;51.386;6.778;2024-02-16T12:41:09;14.37;;;4.27;;
10090;SDS011;5084;51.386;6.778;2024-02-16T12:43:36;11.07;;;4.70;;
10090;SDS011;5084;51.386;6.778;2024-02-16T12:46:02;11.50;;;5.07;;
10090;SDS011;5084;51.386;6.778;2024-02-16T12:48:29;6.73;;;4.57;;
10090;SDS011;5084;51.386;6.778;2024-02-16T12:50:55;8.13;;;4.63;;
10090;SDS011;5084;51.386;6.778;2024-02-16T12:53:22;7.37;;;4.40;;
10090;SDS011;5084;51.386;6.778;2024-02-16T12:55:50;10.37;;;4.80;;
10090;SDS011;5084;51.386;6.778;2024-02-16T12:58:16;8.53;;;5.20;;
10090;SDS011;5084;51.386;6.778;2024-02-16T13:00:42;7.73;;;5.17;;
10090;SDS011;5084;51.386;6.778;2024-02-16T13:03:08;5.33;;;4.83;;
10090;SDS011;5084;51.386;6.778;2024-02-16T13:05:34;9.67;;;6.07;;
10090;SDS011;5084;51.386;6.778;2024-02-16T13:08:00;6.17;;;4.97;;
10090;SDS011;5084;51.386;6.778;2024-02-16T13:10:27;7.57;;;5.67;;
10090;SDS011;5084;51.386;6.778;2024-02-16T13:12:52;9.07;;;5.17;;
10090;SDS011;5084;51.386;6.778;2024-02-16T13:15:18;8.37;;;5.67;;
10090;SDS011;5084;51.386;6.778;2024-02-16T13:17:45;6.63;;;5.00;;
10090;SDS011;5084;51.386;6.778;2024-02-16T13:20:11;8.23;;;5.53;;
10090;SDS011;5084;51.386;6.778;2024-02-16T13:22:37;8.43;;;5.97;;
10090;SDS011;5084;51.386;6.778;2024-02-16T13:25:06;10.10;;;5.87;;
10090;SDS011;5084;51.386;6.778;2024-02-16T13:27:32;10.23;;;5.77;;
10090;SDS011;5084;51.386;6.778;2024-02-16T13:30:02;6.20;;;5.53;;
10090;SDS011;5084;51.386;6.778;2024-02-16T13:32:30;9.30;;;6.73;;
10090;SDS011;5084;51.386;6.778;2024-02-16T13:34:57;6.90;;;5.50;;
10090;SDS011;5084;51.386;6.778;2024-02-16T13:37:24;18.97;;;7.43;;
10090;SDS011;5084;51.386;6.778;2024-02-16T13:39:50;12.00;;;6.50;;
10090;SDS011;5084;51.386;6.778;2024-02-16T13:42:16;10.90;;;6.50;;
10090;SDS011;5084;51.386;6.778;2024-02-16T13:44:42;9.70;;;7.40;;
10090;SDS011;5084;51.386;6.778;2024-02-16T13:47:08;11.67;;;6.83;;
10090;SDS011;5084;51.386;6.778;2024-02-16T13:49:34;9.13;;;6.37;;
10090;SDS011;5084;51.386;6.778;2024-02-16T13:52:00;12.57;;;7.10;;
10090;SDS011;5084;51.386;6.778;2024-02-16T13:54:26;12.23;;;6.93;;
10090;SDS011;5084;51.386;6.778;2024-02-16T13:56:52;12.17;;;6.93;;
10090;SDS011;5084;51.386;6.778;2024-02-16T13:59:19;12.43;;;6.47;;
10090;SDS011;5084;51.386;6.778;2024-02-16T14:01:45;8.47;;;6.00;;
10090;SDS011;5084;51.386;6.778;2024-02-16T14:04:11;9.70;;;6.03;;
10090;SDS011;5084;51.386;6.778;2024-02-16T14:06:38;10.73;;;6.30;;
10090;SDS011;5084;51.386;6.778;2024-02-16T14:09:04;7.07;;;6.37;;
10090;SDS011;5084;51.386;6.778;2024-02-16T14:11:36;14.60;;;7.77;;
10090;SDS011;5084;51.386;6.778;2024-02-16T14:14:02;9.87;;;7.03;;
10090;SDS011;5084;51.386;6.778;2024-02-16T14:16:28;10.73;;;6.40;;
10090;SDS011;5084;51.386;6.778;2024-02-16T14:18:55;8.00;;;7.20;;
10090;SDS011;5084;51.386;6.778;2024-02-16T14:21:21;7.57;;;6.70;;
10090;SDS011;5084;51.386;6.778;2024-02-16T14:23:47;7.97;;;6.83;;
10090;SDS011;5084;51.386;6.778;2024-02-16T14:26:13;12.57;;;6.37;;
10090;SDS011;5084;51.386;6.778;2024-02-16T14:28:39;9.03;;;6.87;;
10090;SDS011;5084;51.386;6.778;2024-02-16T14:31:06;10.50;;;6.53;;
10090;SDS011;5084;51.386;6.778;2024-02-16T14:33:32;8.47;;;6.77;;
10090;SDS011;5084;51.386;6.778;2024-02-16T14:35:58;10.87;;;7.43;;
10090;SDS011;5084;51.386;6.778;2024-02-16T14:38:25;10.37;;;7.10;;
10090;SDS011;5084;51.386;6.778;2024-02-16T14:40:51;7.33;;;6.50;;
10090;SDS011;5084;51.386;6.778;2024-02-16T14:43:17;15.77;;;7.57;;
10090;SDS011;5084;51.386;6.778;2024-02-16T14:45:43;11.33;;;7.27;;
10090;SDS011;5084;51.386;6.778;2024-02-16T14:48:09;8.60;;;6.80;;
10090;SDS011;5084;51.386;6.778;2024-02-16T14:50:36;11.77;;;7.37;;
10090;SDS011;5084;51.386;6.778;2024-02-16T14:53:02;8.60;;;6.10;;
10090;SDS011;5084;51.386;6.778;2024-02-16T14:55:29;7.17;;;5.97;;
10090;SDS011;5084;51.386;6.778;2024-02-16T14:57:55;7.80;;;6.17;;
10090;SDS011;5084;51.386;6.778;2024-02-16T15:00:21;8.47;;;5.53;;